createdAt,value
2023-02-08T07:55:02.185Z,100255.19
2023-02-08T07:57:29.511Z,100259.06
2023-02-08T07:59:56.830Z,100263.81
2023-02-08T08:02:24.158Z,100272.22
2023-02-08T08:04:54.111Z,100274.25
2023-02-08T08:07:21.437Z,100269.22
2023-02-08T08:09:48.756Z,100281.38
2023-02-08T08:12:16.046Z,100272.31
2023-02-08T08:14:43.328Z,100274.41
2023-02-08T08:17:10.657Z,100273.28
2023-02-08T08:19:38.491Z,100279.84
2023-02-08T08:22:05.876Z,100281.03
2023-02-08T08:24:35.659Z,100281.44
2023-02-08T08:27:05.867Z,100280.69
2023-02-08T08:29:36.787Z,100278.00
2023-02-08T08:32:05.165Z,100274.03
2023-02-08T08:34:32.605Z,100274.38
2023-02-08T08:37:02.653Z,100280.03
2023-02-08T08:39:30.106Z,100278.88
2023-02-08T08:42:04.052Z,100279.00
2023-02-08T08:44:31.765Z,100269.28
2023-02-08T08:47:01.280Z,100253.88
2023-02-08T08:49:29.813Z,100250.31
2023-02-08T08:51:58.196Z,100258.34
2023-02-08T08:54:25.506Z,100262.25
2023-02-08T08:56:52.914Z,100259.66
2023-02-08T08:59:20.397Z,100250.50
2023-02-08T09:01:47.730Z,100254.06
2023-02-08T09:04:15.187Z,100252.34
2023-02-08T09:06:42.554Z,100263.22
2023-02-08T09:09:10.890Z,100256.78
2023-02-08T09:11:38.591Z,100260.59
2023-02-08T09:14:06.263Z,100259.59
2023-02-08T09:16:34.183Z,100251.56
2023-02-08T09:19:08.774Z,100254.03
2023-02-08T09:21:37.100Z,100257.88
2023-02-08T09:24:05.295Z,100261.03
2023-02-08T09:26:33.182Z,100244.06
2023-02-08T09:29:01.002Z,100250.97
2023-02-08T09:31:36.564Z,100249.97
2023-02-08T09:34:06.737Z,100238.97
2023-02-08T09:36:40.039Z,100237.06
2023-02-08T09:39:19.335Z,100242.03
2023-02-08T09:42:43.607Z,100238.34
2023-02-08T09:46:00.456Z,100240.00
2023-02-08T09:48:40.712Z,100234.34
2023-02-08T09:51:25.220Z,100232.16
2023-02-08T09:54:22.602Z,100234.91
2023-02-08T09:56:52.099Z,100233.28
2023-02-08T09:59:29.899Z,100235.94
2023-02-08T10:02:27.319Z,100234.59
2023-02-08T10:05:06.506Z,100228.59
2023-02-08T10:07:34.981Z,100228.81
2023-02-08T10:10:22.762Z,100231.31
2023-02-08T10:13:48.049Z,100240.78
2023-02-08T10:16:59.902Z,100220.22
2023-02-08T10:20:46.194Z,100219.22
2023-02-08T10:24:23.419Z,100223.38
2023-02-08T10:27:22.171Z,100210.59
2023-02-08T10:30:40.247Z,100217.53
2023-02-08T10:33:37.564Z,100216.31
2023-02-08T10:36:31.042Z,100211.59
2023-02-08T10:39:00.666Z,100215.53
2023-02-08T10:41:36.910Z,100212.47
2023-02-08T10:44:42.362Z,100213.75
2023-02-08T10:47:49.585Z,100208.63
2023-02-08T10:50:42.207Z,100204.38
2023-02-08T10:53:18.657Z,100201.66
2023-02-08T10:55:49.066Z,100190.84
2023-02-08T10:58:24.331Z,100196.78
2023-02-08T11:00:52.086Z,100192.88
2023-02-08T11:03:30.454Z,100189.19
2023-02-08T11:05:57.753Z,100199.31
2023-02-08T11:08:29.145Z,100197.47
2023-02-08T11:11:10.447Z,100184.97
2023-02-08T11:13:51.445Z,100186.22
2023-02-08T11:16:27.413Z,100192.22
2023-02-08T11:18:59.410Z,100184.81
2023-02-08T11:21:40.346Z,100175.38
2023-02-08T11:24:50.150Z,100175.00
2023-02-08T11:27:33.507Z,100174.19
2023-02-08T11:30:16.199Z,100167.28
2023-02-08T11:32:48.946Z,100161.22
2023-02-08T11:35:25.933Z,100159.66
2023-02-08T11:37:59.436Z,100156.72
2023-02-08T11:40:44.227Z,100160.41
2023-02-08T11:43:35.160Z,100159.81
2023-02-08T11:46:05.586Z,100152.56
2023-02-08T11:48:49.161Z,100150.13
2023-02-08T11:51:46.380Z,100163.06
2023-02-08T11:54:42.119Z,100148.72
2023-02-08T11:57:27.822Z,100146.03
2023-02-08T12:00:31.298Z,100137.28
2023-02-08T12:03:06.130Z,100149.44
2023-02-08T12:06:51.064Z,100140.84
2023-02-08T12:09:30.179Z,100137.84
2023-02-08T12:12:41.105Z,100117.69
2023-02-08T12:15:51.375Z,100119.72
2023-02-08T12:19:10.685Z,100123.47
2023-02-08T12:21:49.981Z,100120.56
2023-02-08T12:24:59.450Z,100106.03
2023-02-08T12:28:06.903Z,100113.84
2023-02-08T12:31:04.497Z,100099.78
2023-02-08T12:33:52.524Z,100100.66
2023-02-08T12:37:13.858Z,100097.94
2023-02-08T12:40:48.980Z,100094.72
2023-02-08T12:44:02.249Z,100092.97
2023-02-08T12:47:03.723Z,100084.97
2023-02-08T12:50:48.626Z,100083.09
2023-02-08T12:53:39.799Z,100086.47
2023-02-08T12:56:20.118Z,100081.72
2023-02-08T12:58:59.136Z,100070.66
2023-02-08T13:01:48.516Z,100064.88
2023-02-08T13:04:33.072Z,100074.41
2023-02-08T13:07:38.853Z,100068.97
2023-02-08T13:10:36.396Z,100068.84
2023-02-08T13:13:31.364Z,100056.31
2023-02-08T13:16:27.781Z,100054.59
2023-02-08T13:20:07.077Z,100053.09
2023-02-08T13:22:42.229Z,100038.94
2023-02-08T13:25:36.798Z,100040.38
2023-02-08T13:28:11.071Z,100040.22
2023-02-08T13:30:40.638Z,100034.31
2023-02-08T13:33:27.195Z,100044.03
2023-02-08T13:35:54.779Z,100040.66
2023-02-08T13:38:36.618Z,100046.00
2023-02-08T13:41:21.974Z,100042.50
2023-02-08T13:44:37.119Z,100039.06
2023-02-08T13:47:07.604Z,100036.06
2023-02-08T13:49:49.724Z,100042.94
2023-02-08T13:52:48.125Z,100035.41
2023-02-08T13:55:31.990Z,100028.00
2023-02-08T13:58:37.012Z,100037.19
2023-02-08T14:01:31.380Z,100039.72
2023-02-08T14:04:07.727Z,100042.47
2023-02-08T14:07:40.634Z,100048.34
2023-02-08T14:10:51.585Z,100048.69
2023-02-08T14:13:58.021Z,100047.28
2023-02-08T14:16:42.073Z,100036.34
2023-02-08T14:19:18.540Z,100041.84
2023-02-08T14:22:18.753Z,100038.31
2023-02-08T14:25:19.889Z,100035.41
2023-02-08T14:28:02.398Z,100040.59
2023-02-08T14:30:38.657Z,100049.44
2023-02-08T14:33:08.625Z,100038.06
2023-02-08T14:36:05.505Z,100051.75
2023-02-08T14:39:30.467Z,100043.81
2023-02-08T14:42:06.181Z,100038.97
2023-02-08T14:44:39.459Z,100043.25
2023-02-08T14:47:24.742Z,100043.81
2023-02-08T14:50:32.713Z,100038.78
2023-02-08T14:53:37.278Z,100039.25
2023-02-08T14:56:44.366Z,100038.59
2023-02-08T14:59:19.350Z,100034.75
2023-02-08T15:02:02.840Z,100033.72
2023-02-08T15:04:31.039Z,100027.31
2023-02-08T15:07:47.157Z,100031.28
2023-02-08T15:10:18.847Z,100042.72
2023-02-08T15:13:00.634Z,100033.06
2023-02-08T15:15:39.096Z,100038.25
2023-02-08T15:18:24.052Z,100044.72
2023-02-08T15:21:15.273Z,100037.44
2023-02-08T15:23:42.602Z,100045.94
2023-02-08T15:26:24.144Z,100044.44
2023-02-08T15:28:52.210Z,100044.78
2023-02-08T15:31:28.611Z,100045.75
2023-02-08T15:33:56.015Z,100044.00
2023-02-08T15:36:36.220Z,100035.97
2023-02-08T15:39:35.993Z,100041.56
2023-02-08T15:42:03.454Z,100044.91
2023-02-08T15:44:35.021Z,100037.97
2023-02-08T15:47:13.346Z,100040.47
2023-02-08T15:49:49.015Z,100045.53
2023-02-08T15:52:24.757Z,100031.03
2023-02-08T15:54:52.341Z,100046.75
2023-02-08T15:58:15.923Z,100043.94
2023-02-08T16:00:45.990Z,100050.22
2023-02-08T16:03:23.764Z,100053.59
2023-02-08T16:05:59.513Z,100051.75
2023-02-08T16:08:42.694Z,100047.50
2023-02-08T16:11:31.793Z,100066.44
2023-02-08T16:14:03.069Z,100053.75
2023-02-08T16:16:41.882Z,100047.22
2023-02-08T16:19:33.667Z,100059.75
2023-02-08T16:22:13.022Z,100057.06
2023-02-08T16:24:40.372Z,100059.16
2023-02-08T16:27:27.313Z,100059.44
2023-02-08T16:29:55.093Z,100063.78
2023-02-08T16:32:39.680Z,100056.47
2023-02-08T16:35:29.602Z,100057.41
2023-02-08T16:38:02.766Z,100066.22
2023-02-08T16:41:11.934Z,100071.31
2023-02-08T16:43:47.865Z,100076.00
2023-02-08T16:46:24.519Z,100081.09
2023-02-08T16:48:58.421Z,100078.97
2023-02-08T16:51:31.866Z,100079.31
2023-02-08T16:54:07.648Z,100065.25
2023-02-08T16:56:39.819Z,100074.50
2023-02-08T16:59:08.011Z,100076.97
2023-02-08T17:01:38.137Z,100080.59
2023-02-08T17:04:06.363Z,100091.56
2023-02-08T17:06:38.231Z,100087.69
2023-02-08T17:09:09.104Z,100084.78
2023-02-08T17:11:37.882Z,100086.50
2023-02-08T17:14:07.847Z,100084.59
2023-02-08T17:16:38.274Z,100087.72
2023-02-08T17:19:06.032Z,100082.66
2023-02-08T17:21:35.585Z,100086.78
2023-02-08T17:24:03.203Z,100085.06
2023-02-08T17:26:40.896Z,100079.94
2023-02-08T17:29:08.337Z,100079.72
2023-02-08T17:31:35.869Z,100085.78
2023-02-08T17:34:05.974Z,100089.03
2023-02-08T17:36:37.114Z,100085.69
2023-02-08T17:39:06.457Z,100084.66
2023-02-08T17:41:33.839Z,100088.50
2023-02-08T17:44:01.822Z,100092.34
2023-02-08T17:46:32.769Z,100086.88
2023-02-08T17:49:01.713Z,100087.75
2023-02-08T17:51:30.678Z,100083.09
2023-02-08T17:53:58.064Z,100084.72
2023-02-08T17:56:31.159Z,100088.03
2023-02-08T17:59:00.876Z,100083.66
2023-02-08T18:01:28.199Z,100079.28
2023-02-08T18:03:57.098Z,100086.88
2023-02-08T18:06:25.187Z,100090.44
2023-02-08T18:08:55.050Z,100083.91
2023-02-08T18:11:24.048Z,100083.94
2023-02-08T18:13:54.310Z,100081.75
2023-02-08T18:16:27.190Z,100092.16
2023-02-08T18:19:01.195Z,100088.59
2023-02-08T18:21:33.121Z,100092.44
2023-02-08T18:24:07.066Z,100086.13
2023-02-08T18:26:36.035Z,100089.16
2023-02-08T18:29:04.582Z,100088.06
2023-02-08T18:31:32.662Z,100081.00
2023-02-08T18:34:00.143Z,100089.16
2023-02-08T18:36:27.555Z,100090.28
2023-02-08T18:38:56.949Z,100084.28
2023-02-08T18:41:29.339Z,100078.81
2023-02-08T18:43:59.335Z,100082.63
2023-02-08T18:46:29.598Z,100084.81
2023-02-08T18:48:57.670Z,100092.47
2023-02-08T18:51:27.384Z,100092.97
2023-02-08T18:53:56.075Z,100088.91
2023-02-08T18:56:27.984Z,100086.47
2023-02-08T18:59:00.680Z,100091.34
2023-02-08T19:01:28.140Z,100090.28
2023-02-08T19:03:56.029Z,100082.13
2023-02-08T19:06:28.583Z,100080.19
2023-02-08T19:09:01.619Z,100072.84
2023-02-08T19:11:39.383Z,100078.03
2023-02-08T19:14:14.724Z,100079.41
2023-02-08T19:16:43.186Z,100077.19
2023-02-08T19:19:11.231Z,100085.38
2023-02-08T19:21:39.705Z,100083.19
2023-02-08T19:24:07.500Z,100085.63
2023-02-08T19:26:39.885Z,100086.44
2023-02-08T19:29:15.912Z,100079.09
2023-02-08T19:31:45.012Z,100085.34
2023-02-08T19:34:12.927Z,100084.81
2023-02-08T19:36:52.017Z,100077.47
2023-02-08T19:39:27.715Z,100080.44
2023-02-08T19:41:58.407Z,100069.28
2023-02-08T19:44:27.277Z,100067.09
2023-02-08T19:46:56.203Z,100060.59
2023-02-08T19:49:26.210Z,100052.72
2023-02-08T19:51:54.443Z,100064.41
2023-02-08T19:54:22.616Z,100064.09
2023-02-08T19:56:50.434Z,100057.84
2023-02-08T19:59:34.143Z,100058.69
2023-02-08T20:02:15.555Z,100048.84
2023-02-08T20:04:42.909Z,100052.38
2023-02-08T20:07:10.556Z,100049.94
2023-02-08T20:09:38.240Z,100055.41
2023-02-08T20:12:06.151Z,100052.94
2023-02-08T20:14:34.607Z,100049.91
2023-02-08T20:17:03.532Z,100054.84
2023-02-08T20:19:31.015Z,100044.50
2023-02-08T20:21:58.354Z,100045.28
2023-02-08T20:24:26.578Z,100039.88
2023-02-08T20:26:54.230Z,100046.91
2023-02-08T20:29:21.723Z,100045.50
2023-02-08T20:31:53.516Z,100043.88
2023-02-08T20:34:21.617Z,100050.44
2023-02-08T20:37:05.669Z,100040.38
2023-02-08T20:39:37.076Z,100044.41
2023-02-08T20:42:05.498Z,100036.81
2023-02-08T20:44:32.839Z,100053.97
2023-02-08T20:47:00.648Z,100056.38
2023-02-08T20:49:29.367Z,100043.28
2023-02-08T20:51:56.793Z,100047.06
2023-02-08T20:54:25.345Z,100048.75
2023-02-08T20:56:54.263Z,100048.69
2023-02-08T20:59:22.557Z,100058.00
2023-02-08T21:01:51.533Z,100052.75
2023-02-08T21:04:23.264Z,100043.81
